createdAt,value
2023-04-26T00:02:36.372Z,99147.45
2023-04-26T00:07:43.913Z,99153.75
2023-04-26T00:12:47.382Z,99152.45
2023-04-26T00:17:51.944Z,99153.88
2023-04-26T00:22:55.897Z,99155.14
2023-04-26T00:27:59.886Z,99154.42
2023-04-26T00:33:04.511Z,99153.42
2023-04-26T00:38:07.968Z,99150.05
2023-04-26T00:43:11.887Z,99151.50
2023-04-26T00:48:19.323Z,99153.11
2023-04-26T00:53:23.586Z,99152.09
2023-04-26T00:58:27.230Z,99156.09
2023-04-26T01:03:31.570Z,99152.30
2023-04-26T01:08:35.973Z,99154.52
2023-04-26T01:13:40.092Z,99157.20
2023-04-26T01:18:43.889Z,99159.17
2023-04-26T01:23:47.211Z,99156.71
2023-04-26T01:28:51.015Z,99151.41
2023-04-26T01:33:54.652Z,99153.13
2023-04-26T01:38:58.091Z,99156.64
2023-04-26T01:44:01.880Z,99157.87
2023-04-26T01:49:05.518Z,99155.46
2023-04-26T01:54:10.034Z,99155.45
2023-04-26T01:59:13.257Z,99154.00
2023-04-26T02:04:17.600Z,99156.69
2023-04-26T02:09:20.726Z,99152.55
2023-04-26T02:14:24.035Z,99145.27
2023-04-26T02:19:27.350Z,99149.56
2023-04-26T02:24:33.079Z,99153.73
2023-04-26T02:29:44.163Z,99155.41
2023-04-26T02:34:48.252Z,99157.77
2023-04-26T02:39:52.348Z,99155.27
2023-04-26T02:44:55.701Z,99149.58
2023-04-26T02:49:59.163Z,99146.48
2023-04-26T02:55:05.494Z,99145.34
2023-04-26T03:00:09.537Z,99147.42
2023-04-26T03:05:13.767Z,99156.77
2023-04-26T03:10:17.032Z,99159.86
2023-04-26T03:15:20.391Z,99157.72
2023-04-26T03:20:24.501Z,99159.87
2023-04-26T03:25:27.895Z,99155.77
2023-04-26T03:30:31.285Z,99162.83
2023-04-26T03:35:34.639Z,99161.41
2023-04-26T03:40:38.032Z,99165.77
2023-04-26T03:45:41.489Z,99171.52
2023-04-26T03:50:46.285Z,99167.53
2023-04-26T03:55:50.517Z,99170.88
2023-04-26T04:00:56.902Z,99175.36
2023-04-26T04:06:04.050Z,99179.54
2023-04-26T04:11:17.046Z,99179.29
2023-04-26T04:16:20.615Z,99182.64
2023-04-26T04:21:24.472Z,99185.25
2023-04-26T04:26:30.636Z,99181.55
2023-04-26T04:31:34.179Z,99182.88
2023-04-26T04:36:39.208Z,99180.95
2023-04-26T04:41:49.226Z,99183.69
2023-04-26T04:46:53.000Z,99187.19
2023-04-26T04:51:56.527Z,99189.05
2023-04-26T04:56:59.941Z,99193.59
2023-04-26T05:02:03.593Z,99193.86
2023-04-26T05:07:09.839Z,99193.33
2023-04-26T05:12:13.264Z,99196.16
2023-04-26T05:17:16.789Z,99195.39
2023-04-26T05:22:22.131Z,99200.48
2023-04-26T05:27:25.542Z,99205.50
2023-04-26T05:32:29.090Z,99213.94
2023-04-26T05:37:32.786Z,99215.60
2023-04-26T05:42:37.337Z,99213.46
2023-04-26T05:47:40.983Z,99215.71
2023-04-26T05:52:44.670Z,99216.48
2023-04-26T05:57:48.148Z,99218.36
2023-04-26T06:02:52.107Z,99222.89
2023-04-26T06:07:56.222Z,99222.17
2023-04-26T06:12:59.833Z,99216.02
2023-04-26T06:18:04.963Z,99222.18
2023-04-26T06:23:08.510Z,99221.39
2023-04-26T06:28:14.919Z,99223.39
2023-04-26T06:33:18.510Z,99233.77
2023-04-26T06:38:22.035Z,99228.73
2023-04-26T06:43:25.544Z,99236.96
2023-04-26T06:48:29.057Z,99229.75
2023-04-26T06:53:32.581Z,99230.80
2023-04-26T06:58:36.650Z,99230.76
2023-04-26T07:03:42.931Z,99241.27
2023-04-26T07:08:46.502Z,99248.50
2023-04-26T07:13:50.111Z,99241.08
2023-04-26T07:18:53.837Z,99248.13
2023-04-26T07:23:58.380Z,99254.17
2023-04-26T07:29:01.905Z,99252.55
2023-04-26T07:34:05.410Z,99253.99
2023-04-26T07:39:11.013Z,99259.28
2023-04-26T07:44:14.493Z,99259.02
2023-04-26T07:49:18.111Z,99260.69
2023-04-26T07:54:21.838Z,99275.68
2023-04-26T07:59:25.383Z,99272.13
2023-04-26T08:04:36.986Z,99277.37
2023-04-26T08:09:40.667Z,99285.59
2023-04-26T08:14:44.304Z,99287.02
2023-04-26T08:19:47.799Z,99283.50
2023-04-26T08:24:54.884Z,99285.50
2023-04-26T08:29:58.331Z,99296.03
2023-04-26T08:35:01.934Z,99294.51
2023-04-26T08:40:10.196Z,99291.70
2023-04-26T08:45:16.639Z,99298.65
2023-04-26T08:50:22.368Z,99309.91
2023-04-26T08:55:27.105Z,99314.64
2023-04-26T09:00:31.626Z,99316.04
2023-04-26T09:05:35.722Z,99325.90
2023-04-26T09:10:39.241Z,99329.33
2023-04-26T09:15:42.909Z,99320.38
2023-04-26T09:20:47.888Z,99324.36
2023-04-26T09:25:51.310Z,99327.72
2023-04-26T09:30:55.685Z,99330.16
2023-04-26T09:36:12.655Z,99323.39
2023-04-26T09:41:16.224Z,99318.86
2023-04-26T09:46:24.943Z,99332.62
2023-04-26T09:51:29.142Z,99334.80
2023-04-26T09:56:32.510Z,99333.14
2023-04-26T10:01:36.958Z,99332.52
2023-04-26T10:06:40.334Z,99335.62
2023-04-26T10:11:43.825Z,99346.08
2023-04-26T10:16:48.319Z,99349.30
2023-04-26T10:21:53.813Z,99343.01
2023-04-26T10:26:57.893Z,99345.61
2023-04-26T10:32:02.076Z,99352.05
2023-04-26T10:37:13.993Z,99359.27
2023-04-26T10:42:25.429Z,99369.73
2023-04-26T10:47:34.299Z,99375.77
2023-04-26T10:52:58.053Z,99375.67
2023-04-26T10:58:01.666Z,99383.02
2023-04-26T11:03:12.061Z,99382.14
2023-04-26T11:08:21.401Z,99392.81
2023-04-26T11:13:25.016Z,99398.73
2023-04-26T11:18:29.458Z,99394.13
2023-04-26T11:23:33.794Z,99398.51
2023-04-26T11:28:39.221Z,99409.08
2023-04-26T11:33:42.562Z,99421.30
2023-04-26T11:38:45.972Z,99421.61
2023-04-26T11:43:49.412Z,99433.61
2023-04-26T11:48:54.057Z,99426.83
2023-04-26T11:54:02.044Z,99435.36
2023-04-26T11:59:05.663Z,99435.34
2023-04-26T12:04:10.830Z,99434.02
2023-04-26T12:09:14.445Z,99431.20
2023-04-26T12:14:18.057Z,99445.48
2023-04-26T12:19:24.335Z,99446.62
2023-04-26T12:24:30.690Z,99443.36
2023-04-26T12:29:34.673Z,99459.22
2023-04-26T12:34:38.268Z,99469.64
2023-04-26T12:39:41.881Z,99471.05
2023-04-26T12:44:45.194Z,99472.01
2023-04-26T12:49:48.623Z,99473.53
2023-04-26T12:54:52.125Z,99477.80
2023-04-26T12:59:56.869Z,99476.83
2023-04-26T13:05:04.775Z,99478.36
2023-04-26T13:10:12.672Z,99474.88
2023-04-26T13:15:17.738Z,99475.94
2023-04-26T13:20:22.346Z,99490.64
2023-04-26T13:25:27.449Z,99496.67
2023-04-26T13:30:31.183Z,99485.62
2023-04-26T13:35:34.691Z,99486.95
2023-04-26T13:40:38.326Z,99493.32
2023-04-26T13:45:43.259Z,99496.61
2023-04-26T13:50:46.672Z,99501.75
2023-04-26T13:55:50.184Z,99495.34
2023-04-26T14:00:53.747Z,99496.92
2023-04-26T14:05:57.224Z,99497.10
2023-04-26T14:11:00.820Z,99507.27
2023-04-26T14:16:04.868Z,99515.92
2023-04-26T14:21:08.163Z,99511.40
2023-04-26T14:26:12.203Z,99514.83
2023-04-26T14:31:18.088Z,99520.34
2023-04-26T14:36:21.505Z,99519.66
2023-04-26T14:41:24.990Z,99529.73
2023-04-26T14:46:30.888Z,99529.04
2023-04-26T14:51:34.377Z,99533.98
2023-04-26T14:56:37.887Z,99529.23
2023-04-26T15:01:41.897Z,99535.33
2023-04-26T15:06:45.337Z,99543.18
2023-04-26T15:11:48.880Z,99538.46
2023-04-26T15:16:52.308Z,99542.84
2023-04-26T15:21:56.080Z,99553.21
2023-04-26T15:26:59.526Z,99565.10
2023-04-26T15:32:04.307Z,99574.51
2023-04-26T15:37:07.738Z,99579.63
2023-04-26T15:42:11.530Z,99596.89
2023-04-26T15:47:14.900Z,99623.10
2023-04-26T15:52:18.457Z,99604.42
2023-04-26T15:57:22.124Z,99621.27
2023-04-26T16:02:25.916Z,99625.85
2023-04-26T16:07:29.665Z,99632.83
2023-04-26T16:12:33.182Z,99632.90
2023-04-26T16:17:38.503Z,99617.37
2023-04-26T16:22:43.964Z,99618.75
2023-04-26T16:27:49.367Z,99620.23
2023-04-26T16:32:52.728Z,99622.21
2023-04-26T16:37:56.335Z,99630.10
2023-04-26T16:43:00.013Z,99632.45
2023-04-26T16:49:29.253Z,99641.02
2023-04-26T16:56:05.389Z,99645.85
2023-04-26T17:01:08.763Z,99645.48
2023-04-26T17:06:12.309Z,99651.80
2023-04-26T17:11:17.100Z,99662.09
2023-04-26T17:16:20.402Z,99669.66
2023-04-26T17:21:24.027Z,99663.65
2023-04-26T17:26:28.054Z,99667.20
2023-04-26T17:31:31.462Z,99674.93
2023-04-26T17:36:35.080Z,99672.30
2023-04-26T17:41:38.807Z,99677.11
2023-04-26T17:46:42.077Z,99682.62
2023-04-26T17:51:45.530Z,99676.43
2023-04-26T17:56:48.939Z,99677.94
2023-04-26T18:01:53.821Z,99680.95
2023-04-26T18:06:57.144Z,99687.14
2023-04-26T18:12:02.903Z,99688.70
2023-04-26T18:17:06.428Z,99696.88
2023-04-26T18:22:11.943Z,99696.71
2023-04-26T18:27:15.355Z,99699.93
2023-04-26T18:32:18.801Z,99705.99
2023-04-26T18:37:22.387Z,99710.77
2023-04-26T18:42:27.335Z,99712.20
2023-04-26T18:47:31.299Z,99717.86
2023-04-26T18:52:35.797Z,99726.17
2023-04-26T18:57:39.007Z,99725.21
2023-04-26T19:02:42.918Z,99733.16
2023-04-26T19:07:46.962Z,99731.94
2023-04-26T19:12:50.652Z,99738.71
2023-04-26T19:17:54.181Z,99738.52
2023-04-26T19:22:57.611Z,99740.10
2023-04-26T19:28:01.130Z,99741.70
2023-04-26T19:33:04.676Z,99743.55
2023-04-26T19:38:08.366Z,99744.04
2023-04-26T19:43:11.882Z,99740.80
2023-04-26T19:48:15.618Z,99750.70
2023-04-26T19:53:19.018Z,99746.04
2023-04-26T19:58:22.692Z,99751.80
2023-04-26T20:03:26.348Z,99751.08
2023-04-26T20:08:31.389Z,99752.91
2023-04-26T20:13:35.227Z,99751.79
2023-04-26T20:18:38.841Z,99754.03
2023-04-26T20:23:42.968Z,99759.45
2023-04-26T20:28:47.818Z,99759.90
2023-04-26T20:33:51.640Z,99763.89
2023-04-26T20:38:55.053Z,99770.79
2023-04-26T20:43:58.775Z,99774.42
2023-04-26T20:49:02.902Z,99774.02
2023-04-26T20:54:06.315Z,99776.07
2023-04-26T20:59:09.962Z,99777.95
2023-04-26T21:04:13.998Z,99779.96
2023-04-26T21:09:17.684Z,99781.03
2023-04-26T21:14:21.309Z,99784.14
2023-04-26T21:19:24.937Z,99789.23
2023-04-26T21:24:28.557Z,99785.14
2023-04-26T21:29:32.482Z,99790.69
2023-04-26T21:34:37.633Z,99792.75
2023-04-26T21:39:41.142Z,99791.20
2023-04-26T21:44:44.751Z,99796.77
2023-04-26T21:49:48.278Z,99802.00
2023-04-26T21:54:52.865Z,99803.58
2023-04-26T21:59:57.040Z,99805.48
2023-04-26T22:05:00.668Z,99811.77
2023-04-26T22:10:04.393Z,99815.71
2023-04-26T22:15:08.253Z,99817.45
2023-04-26T22:20:12.340Z,99822.50
2023-04-26T22:25:15.749Z,99821.23
2023-04-26T22:30:24.542Z,99821.05
2023-04-26T22:35:30.208Z,99822.90
2023-04-26T22:40:34.092Z,99822.70
2023-04-26T22:45:37.329Z,99828.48
2023-04-26T22:50:40.805Z,99828.23
2023-04-26T22:55:44.418Z,99831.84
2023-04-26T23:00:47.733Z,99830.54
2023-04-26T23:05:51.254Z,99831.45
2023-04-26T23:10:54.655Z,99834.13
2023-04-26T23:15:58.080Z,99838.66
2023-04-26T23:21:01.694Z,99843.13
2023-04-26T23:26:08.231Z,99842.53
2023-04-26T23:31:11.936Z,99842.41
2023-04-26T23:36:15.517Z,99842.36
2023-04-26T23:41:18.929Z,99843.75
2023-04-26T23:46:22.384Z,99841.48
2023-04-26T23:51:26.821Z,99845.14
2023-04-26T23:56:30.401Z,99848.64
